Time;durP1;ratioP1;P1;durP2;ratioP2;P2;SDS_P1;SDS_P2;PMS_P1;PMS_P2;Temp;Humidity;BMP_temperature;BMP_pressure;BME280_temperature;BME280_humidity;BME280_pressure;Samples;Min_cycle;Max_cycle;Signal;HPM_P1;HPM_P2
2023/01/25 00:01:24;;;;;;;18.20;10.88;;;;;;;6.28;100.00;101750.50;4903773;29;20115;-88
2023/01/25 00:03:50;;;;;;;17.55;11.13;;;;;;;6.20;100.00;101764.19;4903685;29;20510;-90
2023/01/25 00:06:15;;;;;;;21.73;11.27;;;;;;;6.20;100.00;101759.78;4918252;29;20056;-88
2023/01/25 00:08:41;;;;;;;18.83;11.32;;;;;;;6.10;100.00;101758.69;4903292;29;20032;-90
2023/01/25 00:11:06;;;;;;;17.63;10.93;;;;;;;6.00;100.00;101751.56;4887028;29;20067;-89
2023/01/25 00:13:32;;;;;;;20.65;12.20;;;;;;;6.01;100.00;101756.69;4919744;29;20040;-90
2023/01/25 00:16:02;;;;;;;18.60;11.68;;;;;;;5.73;100.00;101749.75;4919438;29;20498;-89
2023/01/25 00:18:27;;;;;;;17.85;11.18;;;;;;;5.84;100.00;101748.19;4903326;29;20071;-91
2023/01/25 00:20:53;;;;;;;20.75;11.77;;;;;;;5.94;100.00;101744.88;4919656;29;20107;-89
2023/01/25 00:23:18;;;;;;;23.65;13.60;;;;;;;6.02;100.00;101744.38;4886458;29;20087;-91
2023/01/25 00:25:44;;;;;;;22.98;12.80;;;;;;;6.01;100.00;101743.53;4919651;29;20040;-91
2023/01/25 00:28:09;;;;;;;22.02;12.88;;;;;;;5.98;100.00;101737.63;4902561;29;20024;-91
2023/01/25 00:30:35;;;;;;;20.20;14.20;;;;;;;6.01;100.00;101732.16;4902987;29;20155;-91
2023/01/25 00:33:25;;;;;;;24.80;13.60;;;;;;;5.90;100.00;101734.69;4919461;29;20123;-93
2023/01/25 00:35:50;;;;;;;23.35;13.45;;;;;;;5.99;100.00;101736.69;4917820;29;20059;-92
2023/01/25 00:38:37;;;;;;;22.13;13.82;;;;;;;5.86;100.00;101735.84;4902833;29;20036;-88
2023/01/25 00:41:02;;;;;;;23.88;13.70;;;;;;;5.66;100.00;101737.97;4919226;29;20541;-91
2023/01/25 00:43:28;;;;;;;25.35;14.40;;;;;;;5.56;100.00;101736.03;4902519;29;20036;-90
2023/01/25 00:45:59;;;;;;;22.70;13.93;;;;;;;5.79;100.00;101731.91;4919293;29;20047;-89
2023/01/25 00:48:25;;;;;;;20.92;13.15;;;;;;;6.00;100.00;101730.50;4902310;29;20439;-90
2023/01/25 00:50:51;;;;;;;22.67;13.70;;;;;;;5.92;100.00;101732.78;4919654;29;20040;-90
2023/01/25 00:53:16;;;;;;;21.05;13.45;;;;;;;5.93;100.00;101729.22;4919265;29;20402;-90
2023/01/25 00:55:55;;;;;;;20.60;12.20;;;;;;;5.89;100.00;101727.75;4901406;29;20477;-92
2023/01/25 00:58:21;;;;;;;20.73;13.48;;;;;;;5.93;100.00;101729.22;4905310;29;20040;-93
2023/01/25 01:00:46;;;;;;;24.40;14.45;;;;;;;5.91;100.00;101717.94;4919176;29;20035;-91
2023/01/25 01:03:12;;;;;;;23.98;13.93;;;;;;;5.85;100.00;101726.22;4901806;29;20050;-92
2023/01/25 01:05:37;;;;;;;21.98;12.65;;;;;;;5.94;100.00;101712.47;4917426;29;20044;-90
2023/01/25 01:08:06;;;;;;;24.77;12.80;;;;;;;6.05;100.00;101725.75;4888451;29;20044;-92
2023/01/25 01:10:32;;;;;;;22.33;12.98;;;;;;;5.72;100.00;101721.78;4916277;29;20112;-91
2023/01/25 01:12:58;;;;;;;22.23;13.82;;;;;;;5.74;100.00;101719.88;4901930;29;20036;-91
2023/01/25 01:15:26;;;;;;;26.98;15.30;;;;;;;5.61;100.00;101724.25;4901997;29;20493;-92
2023/01/25 01:17:54;;;;;;;28.77;15.43;;;;;;;5.47;100.00;101711.19;4901583;29;20509;-92
2023/01/25 01:20:20;;;;;;;26.38;16.23;;;;;;;5.50;100.00;101710.97;4918856;29;20037;-90
2023/01/25 01:22:46;;;;;;;28.02;15.85;;;;;;;5.51;100.00;101712.66;4918948;29;20039;-89
2023/01/25 01:25:12;;;;;;;30.13;16.88;;;;;;;5.51;100.00;101714.44;4901486;29;20501;-90
2023/01/25 01:27:39;;;;;;;30.98;18.77;;;;;;;5.52;100.00;101713.50;4917853;29;20047;-89
2023/01/25 01:30:05;;;;;;;30.27;16.73;;;;;;;5.71;100.00;101720.09;4886307;29;20084;-88
2023/01/25 01:32:31;;;;;;;30.67;18.13;;;;;;;5.80;100.00;101712.53;4901618;29;20040;-88
2023/01/25 01:34:57;;;;;;;33.63;17.92;;;;;;;5.84;100.00;101714.00;4901678;29;20040;-89
2023/01/25 01:37:22;;;;;;;29.88;17.15;;;;;;;6.05;100.00;101712.59;4902459;29;20048;-92
2023/01/25 01:39:48;;;;;;;30.67;17.38;;;;;;;6.07;100.00;101723.84;4902676;29;20032;-91
2023/01/25 01:42:17;;;;;;;29.92;17.30;;;;;;;6.01;100.00;101716.38;4918453;29;20115;-89
2023/01/25 01:44:43;;;;;;;30.35;17.67;;;;;;;5.93;100.00;101718.69;4902598;29;20032;-91
2023/01/25 01:47:33;;;;;;;30.50;17.88;;;;;;;6.01;100.00;101713.75;4917724;29;20096;-91
2023/01/25 01:50:23;;;;;;;30.88;18.35;;;;;;;6.04;100.00;101713.53;4888999;29;20130;-89
2023/01/25 01:52:54;;;;;;;33.28;18.80;;;;;;;6.04;100.00;101711.75;4917540;29;20080;-90
2023/01/25 01:55:22;;;;;;;32.60;18.77;;;;;;;5.84;100.00;101703.47;4923567;29;20039;-90
2023/01/25 01:57:58;;;;;;;34.03;19.92;;;;;;;5.68;100.00;101701.88;4923954;29;20027;-91
2023/01/25 02:00:34;;;;;;;40.90;21.33;;;;;;;5.65;100.00;101702.09;4936597;29;20077;-87
2023/01/25 02:03:00;;;;;;;40.63;22.05;;;;;;;5.56;100.00;101697.44;4932455;29;20048;-90
2023/01/25 02:05:45;;;;;;;38.97;20.98;;;;;;;5.50;100.00;101695.19;4918984;29;20016;-89
2023/01/25 02:08:13;;;;;;;42.22;21.65;;;;;;;5.47;100.00;101698.03;4927596;29;20048;-90
2023/01/25 02:10:41;;;;;;;41.08;21.92;;;;;;;5.50;100.00;101689.94;4903799;29;20043;-90
2023/01/25 02:13:07;;;;;;;42.17;22.15;;;;;;;5.47;100.00;101682.25;4919098;29;20064;-90
2023/01/25 02:15:41;;;;;;;41.20;23.20;;;;;;;5.43;100.00;101683.44;4892878;29;20478;-90
2023/01/25 02:18:09;;;;;;;41.10;23.30;;;;;;;5.40;100.00;101678.34;4911003;29;20043;-91
2023/01/25 02:20:44;;;;;;;50.72;25.40;;;;;;;5.38;100.00;101674.13;4925104;29;20023;-90
2023/01/25 02:23:34;;;;;;;47.75;25.58;;;;;;;5.42;100.00;101671.22;4940577;29;20024;-89
2023/01/25 02:26:04;;;;;;;47.72;25.38;;;;;;;5.46;100.00;101672.69;4912148;29;20043;-89
2023/01/25 02:28:51;;;;;;;46.97;24.58;;;;;;;5.56;100.00;101668.53;4927627;29;20092;-89
2023/01/25 02:31:17;;;;;;;52.15;26.42;;;;;;;5.52;100.00;101671.44;4943123;29;20029;-90
2023/01/25 02:33:44;;;;;;;46.47;25.77;;;;;;;5.50;100.00;101660.19;4926601;29;20040;-91
2023/01/25 02:36:10;;;;;;;48.15;24.90;;;;;;;5.50;100.00;101676.78;4917710;29;20039;-88
2023/01/25 02:38:42;;;;;;;47.42;25.30;;;;;;;5.55;100.00;101681.75;4905849;29;20036;-88
2023/01/25 02:41:16;;;;;;;44.83;24.80;;;;;;;5.56;100.00;101675.56;4906047;29;20036;-88
2023/01/25 02:43:42;;;;;;;46.65;25.67;;;;;;;5.57;100.00;101682.47;4907472;29;20032;-88
2023/01/25 02:46:21;;;;;;;47.58;25.73;;;;;;;5.54;100.00;101678.28;4922760;29;20516;-90
2023/01/25 02:48:47;;;;;;;48.15;25.02;;;;;;;5.51;100.00;101681.13;4889300;29;20374;-91
2023/01/25 02:51:16;;;;;;;45.97;25.42;;;;;;;5.51;100.00;101675.84;4922573;29;20038;-89
2023/01/25 02:53:41;;;;;;;46.67;25.40;;;;;;;5.57;100.00;101671.97;4921761;29;20139;-88
2023/01/25 02:56:07;;;;;;;43.03;22.77;;;;;;;5.54;100.00;101680.91;4922815;29;20055;-90
2023/01/25 02:58:33;;;;;;;41.85;24.27;;;;;;;5.67;100.00;101683.56;4909740;29;20446;-90
2023/01/25 03:00:58;;;;;;;38.53;22.13;;;;;;;5.90;100.00;101682.06;4917053;29;20032;-89
2023/01/25 03:03:27;;;;;;;40.58;23.10;;;;;;;6.00;100.00;101681.31;4910626;29;20020;-90
2023/01/25 03:06:03;;;;;;;30.35;17.75;;;;;;;6.08;100.00;101686.06;4914427;29;20040;-91
2023/01/25 03:08:32;;;;;;;38.95;21.52;;;;;;;6.10;100.00;101678.91;4889510;29;20563;-89
2023/01/25 03:11:05;;;;;;;38.38;21.40;;;;;;;6.09;100.00;101664.09;4905501;29;20123;-90
2023/01/25 03:13:35;;;;;;;32.92;19.55;;;;;;;6.12;100.00;101656.81;4904793;29;20044;-90
2023/01/25 03:16:06;;;;;;;34.88;20.88;;;;;;;6.13;100.00;101663.75;4903979;29;20043;-89
2023/01/25 03:18:33;;;;;;;34.22;20.48;;;;;;;6.26;100.00;101666.41;4903636;29;20096;-89
2023/01/25 03:21:29;;;;;;;31.58;19.50;;;;;;;6.22;100.00;101667.56;4921351;29;20036;-90
2023/01/25 03:24:00;;;;;;;32.08;18.73;;;;;;;6.06;100.00;101659.88;4863780;29;20053;-89
2023/01/25 03:27:09;;;;;;;32.50;17.90;;;;;;;5.84;100.00;101661.38;4863786;29;20128;-89
2023/01/25 03:29:23;;;;;;;34.35;20.00;;;;;;;5.79;100.00;101652.97;4846678;29;20526;-89
2023/01/25 03:31:52;;;;;;;34.92;20.63;;;;;;;5.84;100.00;101651.72;4864871;29;20042;-89
2023/01/25 03:34:17;;;;;;;33.58;19.73;;;;;;;5.73;100.00;101647.16;4864712;29;20057;-89
2023/01/25 03:36:43;;;;;;;33.72;18.92;;;;;;;5.63;100.00;101642.66;4863227;29;20038;-88
2023/01/25 03:39:08;;;;;;;41.95;20.77;;;;;;;5.60;100.00;101635.78;4863102;29;20049;-90
2023/01/25 03:41:39;;;;;;;38.97;20.85;;;;;;;5.61;100.00;101634.84;4862526;29;20049;-90
2023/01/25 03:44:10;;;;;;;36.75;20.35;;;;;;;5.56;100.00;101628.22;4846054;29;20041;-89
2023/01/25 03:46:37;;;;;;;41.03;21.63;;;;;;;5.49;100.00;101617.28;4862897;29;20153;-91
2023/01/25 03:49:04;;;;;;;34.47;19.65;;;;;;;5.59;100.00;101605.22;4862827;29;20049;-88
2023/01/25 03:51:29;;;;;;;38.00;20.38;;;;;;;5.74;100.00;101603.31;4846986;29;20041;-89
2023/01/25 03:53:56;;;;;;;36.83;20.90;;;;;;;5.72;100.00;101606.06;4861527;29;20118;-90
2023/01/25 03:56:21;;;;;;;34.90;19.85;;;;;;;5.72;100.00;101608.69;4845952;29;20140;-89
2023/01/25 03:58:55;;;;;;;32.53;19.08;;;;;;;5.85;100.00;101610.47;4862287;29;20136;-91
2023/01/25 04:01:24;;;;;;;34.03;19.00;;;;;;;5.81;100.00;101614.25;4887600;29;20078;-89
2023/01/25 04:03:58;;;;;;;33.63;19.17;;;;;;;5.67;100.00;101600.25;4905498;29;20127;-91
2023/01/25 04:06:24;;;;;;;33.20;19.95;;;;;;;5.74;100.00;101604.16;4887795;29;20047;-90
2023/01/25 04:08:51;;;;;;;32.80;19.45;;;;;;;5.74;100.00;101604.16;4903502;29;20067;-90
2023/01/25 04:11:17;;;;;;;36.40;19.80;;;;;;;5.68;100.00;101609.84;4903209;29;20153;-92
2023/01/25 04:13:45;;;;;;;33.60;19.90;;;;;;;5.65;100.00;101610.03;4904065;29;20358;-90
2023/01/25 04:16:13;;;;;;;39.22;20.77;;;;;;;5.59;100.00;101615.72;4888024;29;20047;-90
2023/01/25 04:18:58;;;;;;;39.55;21.25;;;;;;;5.64;100.00;101613.59;4919709;29;20520;-88
2023/01/25 04:21:23;;;;;;;36.65;21.35;;;;;;;5.73;100.00;101614.78;4918297;29;20036;-90
2023/01/25 04:23:49;;;;;;;38.03;20.83;;;;;;;5.81;100.00;101608.97;4902293;29;20564;-91
2023/01/25 04:26:15;;;;;;;38.45;21.05;;;;;;;5.83;100.00;101612.38;4902319;29;20405;-90
2023/01/25 04:28:46;;;;;;;38.17;22.15;;;;;;;5.73;100.00;101607.72;4902267;29;20040;-89
2023/01/25 04:31:14;;;;;;;41.63;22.02;;;;;;;5.72;100.00;101608.69;4887130;29;20517;-89
2023/01/25 04:33:40;;;;;;;42.72;21.52;;;;;;;5.69;100.00;101598.38;4887386;29;20048;-88
2023/01/25 04:36:08;;;;;;;42.08;22.02;;;;;;;5.65;100.00;101601.31;4888960;29;20139;-89
2023/01/25 04:38:34;;;;;;;40.75;22.05;;;;;;;5.60;100.00;101595.53;4919610;29;20068;-90
2023/01/25 04:41:00;;;;;;;37.83;22.92;;;;;;;5.53;100.00;101589.84;4889006;29;20044;-89
2023/01/25 04:43:25;;;;;;;39.72;23.10;;;;;;;5.64;100.00;101600.47;4903161;29;20043;-89
2023/01/25 04:45:56;;;;;;;39.85;22.02;;;;;;;5.77;100.00;101605.72;4905447;29;20066;-90
2023/01/25 04:48:29;;;;;;;41.80;21.88;;;;;;;5.82;100.00;101601.00;4914544;29;20060;-90
2023/01/25 04:51:04;;;;;;;38.72;21.83;;;;;;;6.02;100.00;101594.41;4924500;29;20028;-91
2023/01/25 04:53:34;;;;;;;37.38;21.40;;;;;;;6.02;100.00;101595.25;4940091;29;20036;-90
2023/01/25 04:56:08;;;;;;;34.80;20.30;;;;;;;6.02;100.00;101592.63;4920311;29;20044;-92
2023/01/25 04:58:46;;;;;;;34.97;20.02;;;;;;;5.88;100.00;101599.75;4888971;29;20040;-87
2023/01/25 05:01:11;;;;;;;38.17;20.33;;;;;;;5.92;100.00;101590.72;4886735;29;20040;-90
2023/01/25 05:03:38;;;;;;;37.35;20.98;;;;;;;5.85;100.00;101592.06;4902080;29;20467;-90
2023/01/25 05:06:11;;;;;;;;;;;;;;;5.81;100.00;101593.22;4903988;29;20032;-89
2023/01/25 05:08:36;;;;;;;37.50;21.35;;;;;;;5.72;100.00;101597.31;4907173;29;19950;-90
2023/01/25 05:11:02;;;;;;;37.08;20.85;;;;;;;5.74;100.00;101601.53;4934699;29;20371;-91
2023/01/25 05:13:35;;;;;;;34.45;20.27;;;;;;;5.71;100.00;101599.09;4902395;29;20118;-91
2023/01/25 05:16:10;;;;;;;39.03;20.17;;;;;;;5.95;100.00;101590.50;4903466;29;20055;-90
2023/01/25 05:18:36;;;;;;;32.55;19.60;;;;;;;5.97;100.00;101591.22;4888829;29;20044;-89
2023/01/25 05:21:02;;;;;;;33.22;19.92;;;;;;;5.94;100.00;101594.06;4889045;29;20581;-89
2023/01/25 05:23:28;;;;;;;31.13;19.15;;;;;;;5.87;100.00;101595.44;4903174;29;20048;-89
2023/01/25 05:28:39;;;;;;;34.15;18.33;;;;;;;5.90;100.00;101590.00;4917620;29;20050;-90
2023/01/25 05:31:18;;;;;;;28.75;18.38;;;;;;;5.87;100.00;101590.19;4890133;29;20512;-91
2023/01/25 05:33:46;;;;;;;32.03;18.70;;;;;;;5.86;100.00;101586.72;4921848;29;20123;-88
2023/01/25 05:36:12;;;;;;;35.85;18.83;;;;;;;5.81;100.00;101585.31;4903700;29;20043;-89
2023/01/25 05:38:37;;;;;;;34.22;19.08;;;;;;;5.74;100.00;101593.63;4918595;29;20061;-89
2023/01/25 05:41:03;;;;;;;27.83;17.08;;;;;;;5.82;100.00;101589.63;4917977;29;20051;-92
2023/01/25 05:43:29;;;;;;;34.28;18.02;;;;;;;5.73;100.00;101591.13;4894398;29;20206;-91
2023/01/25 05:45:55;;;;;;;31.65;18.17;;;;;;;5.77;100.00;101586.50;4909150;29;20064;-88
2023/01/25 05:48:20;;;;;;;29.13;17.98;;;;;;;5.88;100.00;101589.25;4904661;29;20122;-89
2023/01/25 05:50:46;;;;;;;29.65;18.00;;;;;;;5.70;100.00;101591.34;4904222;29;20105;-89
2023/01/25 05:53:17;;;;;;;32.03;20.45;;;;;;;5.68;100.00;101588.78;4904029;29;20139;-89
2023/01/25 05:55:43;;;;;;;29.95;17.70;;;;;;;5.81;100.00;101587.94;4905690;29;20036;-90
2023/01/25 05:58:13;;;;;;;31.17;18.60;;;;;;;5.80;100.00;101594.19;4901867;29;20046;-89
2023/01/25 06:00:39;;;;;;;31.17;19.30;;;;;;;5.63;100.00;101590.88;4901427;29;20486;-91
2023/01/25 06:03:04;;;;;;;32.70;18.13;;;;;;;5.87;100.00;101595.44;4904902;29;20116;-90
2023/01/25 06:05:33;;;;;;;31.77;18.73;;;;;;;5.65;100.00;101599.53;4919972;29;20036;-90
2023/01/25 06:07:59;;;;;;;28.38;17.80;;;;;;;5.67;100.00;101602.88;4892970;29;20040;-91
2023/01/25 06:10:33;;;;;;;33.92;19.88;;;;;;;5.53;100.00;101597.75;4906318;29;20085;-93
2023/01/25 06:12:59;;;;;;;33.22;19.67;;;;;;;5.55;100.00;101606.34;4906099;29;20091;-91
2023/01/25 06:15:25;;;;;;;34.25;19.92;;;;;;;5.59;100.00;101605.22;4921521;29;20075;-89
2023/01/25 06:18:08;;;;;;;41.28;21.42;;;;;;;5.51;100.00;101607.50;4910062;29;20027;-91
2023/01/25 06:21:06;;;;;;;34.25;21.17;;;;;;;5.43;100.00;101611.59;4910032;29;20103;-90
2023/01/25 06:23:36;;;;;;;41.22;21.98;;;;;;;5.47;100.00;101603.38;4912358;29;20529;-88
2023/01/25 06:26:09;;;;;;;43.85;22.85;;;;;;;5.40;100.00;101612.63;4908639;29;20100;-91
2023/01/25 06:28:36;;;;;;;45.33;24.67;;;;;;;5.39;100.00;101603.06;4895763;29;20074;-93
2023/01/25 06:31:07;;;;;;;50.50;24.52;;;;;;;5.41;100.00;101600.31;4896624;29;20040;-89
2023/01/25 06:33:36;;;;;;;51.97;27.88;;;;;;;5.51;100.00;101609.28;4896218;29;20043;-89
2023/01/25 06:36:17;;;;;;;55.85;26.52;;;;;;;5.61;100.00;101605.94;4912475;29;20070;-90
2023/01/25 06:38:46;;;;;;;53.58;27.63;;;;;;;5.71;100.00;101606.16;4927986;29;20063;-92
2023/01/25 06:41:12;;;;;;;53.33;26.52;;;;;;;5.80;100.00;101607.31;4995908;23;20063;-91
2023/01/25 06:43:51;;;;;;;55.33;28.90;;;;;;;5.92;100.00;101607.34;4932769;29;20036;-91
2023/01/25 06:46:19;;;;;;;55.95;28.17;;;;;;;6.03;100.00;101610.06;4946781;29;20036;-90
2023/01/25 06:48:45;;;;;;;59.80;29.25;;;;;;;6.08;100.00;101610.59;4928749;29;20036;-88
2023/01/25 06:51:17;;;;;;;57.42;30.10;;;;;;;5.98;100.00;101606.91;4943266;29;20046;-91
2023/01/25 06:53:43;;;;;;;;;;;;;;;5.87;100.00;101613.84;4947012;29;20047;-90
2023/01/25 06:56:12;;;;;;;60.53;30.42;;;;;;;5.84;100.00;101614.03;4945899;29;19918;-91
2023/01/25 06:58:38;;;;;;;60.13;30.40;;;;;;;5.76;100.00;101605.84;4941117;29;20126;-92
2023/01/25 07:01:14;;;;;;;66.35;31.77;;;;;;;5.64;100.00;101605.72;4942971;29;20031;-89
2023/01/25 07:03:40;;;;;;;78.10;34.20;;;;;;;5.42;100.00;101608.13;4941359;29;20040;-91
2023/01/25 07:06:08;;;;;;;66.28;31.15;;;;;;;5.34;100.00;101602.53;4926983;29;20035;-87
2023/01/25 07:08:35;;;;;;;74.80;34.25;;;;;;;5.31;100.00;101605.34;4928876;29;20095;-89
2023/01/25 07:11:03;;;;;;;100.03;34.60;;;;;;;5.41;100.00;101600.31;4942098;29;20043;-90
2023/01/25 07:13:33;;;;;;;84.93;36.60;;;;;;;5.30;100.00;101598.44;4928222;29;20478;-91
2023/01/25 07:16:05;;;;;;;71.35;36.55;;;;;;;5.45;100.00;101594.78;4921866;29;20036;-91
2023/01/25 07:18:36;;;;;;;75.30;37.80;;;;;;;5.38;100.00;101590.88;4920888;29;20477;-91
2023/01/25 07:21:20;;;;;;;92.40;36.40;;;;;;;5.27;100.00;101598.59;4926563;29;20067;-91
2023/01/25 07:23:46;;;;;;;90.10;38.80;;;;;;;5.22;100.00;101584.94;4938017;29;20040;-93
2023/01/25 07:26:19;;;;;;;92.32;38.33;;;;;;;5.25;100.00;101590.00;4935962;29;20055;-90
2023/01/25 07:28:46;;;;;;;81.55;37.25;;;;;;;5.49;100.00;101593.63;4944668;29;20043;-85
2023/01/25 07:31:12;;;;;;;78.72;38.05;;;;;;;5.36;100.00;101595.41;4929886;29;20119;-88
2023/01/25 07:33:38;;;;;;;85.13;39.42;;;;;;;5.30;100.00;101587.94;4940428;29;20044;-87
2023/01/25 07:36:06;;;;;;;80.20;39.15;;;;;;;5.45;100.00;101591.28;4939144;29;20067;-88
2023/01/25 07:38:33;;;;;;;92.60;40.20;;;;;;;5.37;100.00;101591.81;4924795;29;20043;-86
2023/01/25 07:40:58;;;;;;;86.18;40.92;;;;;;;5.38;100.00;101596.13;4946462;29;20106;-86
2023/01/25 07:43:24;;;;;;;83.82;38.67;;;;;;;5.53;100.00;101589.00;4957598;28;20054;-86
2023/01/25 07:45:51;;;;;;;76.38;37.80;;;;;;;5.71;100.00;101591.22;4961941;28;20091;-89
2023/01/25 07:48:23;;;;;;;74.18;36.83;;;;;;;5.77;100.00;101591.75;4949631;28;20056;-86
2023/01/25 07:51:10;;;;;;;79.28;36.95;;;;;;;5.80;100.00;101592.34;4954367;28;20040;-88
2023/01/25 07:53:40;;;;;;;81.35;38.22;;;;;;;5.73;100.00;101591.94;4948609;29;20046;-88
2023/01/25 07:56:07;;;;;;;77.63;37.10;;;;;;;5.84;100.00;101593.00;4947555;28;20410;-89
2023/01/25 07:58:32;;;;;;;83.07;39.83;;;;;;;5.70;100.00;101601.84;4938542;28;20028;-89
2023/01/25 08:01:17;;;;;;;88.97;40.85;;;;;;;5.76;100.00;101597.97;4940512;28;20038;-88
2023/01/25 08:03:44;;;;;;;87.32;38.35;;;;;;;5.96;100.00;101589.56;4946063;28;20095;-89
2023/01/25 08:06:11;;;;;;;81.63;38.30;;;;;;;5.77;100.00;101594.38;4940093;29;20036;-87
2023/01/25 08:08:45;;;;;;;84.80;38.15;;;;;;;5.96;100.00;101594.81;4945788;29;20440;-87
2023/01/25 08:11:23;;;;;;;94.40;39.47;;;;;;;6.11;100.00;101599.00;4961447;29;20046;-89
2023/01/25 08:13:48;;;;;;;87.00;38.00;;;;;;;6.41;100.00;101585.47;4939397;29;20039;-88
2023/01/25 08:16:19;;;;;;;84.40;37.70;;;;;;;6.33;100.00;101586.00;4938412;29;20086;-88
2023/01/25 08:18:50;;;;;;;85.57;38.58;;;;;;;6.13;100.00;101584.78;4939436;29;20417;-86
2023/01/25 08:21:16;;;;;;;87.80;39.50;;;;;;;6.02;100.00;101583.88;4941103;29;20036;-88
2023/01/25 08:23:45;;;;;;;93.68;38.72;;;;;;;5.99;100.00;101577.03;4935008;29;20060;-90
2023/01/25 08:26:14;;;;;;;98.22;41.25;;;;;;;6.08;100.00;101581.66;4902401;29;20068;-89
2023/01/25 08:28:39;;;;;;;90.20;41.05;;;;;;;6.19;100.00;101583.53;4929830;29;20036;-89
2023/01/25 08:31:08;;;;;;;94.10;39.55;;;;;;;6.29;100.00;101579.31;4924092;29;20036;-89
2023/01/25 08:33:34;;;;;;;81.82;38.25;;;;;;;6.44;100.00;101578.19;4919637;29;20036;-88
2023/01/25 08:35:59;;;;;;;84.43;39.40;;;;;;;6.51;100.00;101582.09;4921318;29;20047;-89
2023/01/25 08:38:25;;;;;;;78.88;37.85;;;;;;;6.61;100.00;101580.47;4921962;29;20533;-87
2023/01/25 08:40:51;;;;;;;87.10;39.10;;;;;;;6.58;100.00;101577.22;4924355;29;20092;-86
2023/01/25 08:43:16;;;;;;;72.45;36.15;;;;;;;6.72;100.00;101577.91;4919898;29;20048;-85
2023/01/25 08:45:42;;;;;;;70.32;35.10;;;;;;;6.66;100.00;101564.34;4921213;29;20047;-86
2023/01/25 08:48:11;;;;;;;86.63;36.00;;;;;;;6.59;100.00;101577.13;4905933;29;20056;-86
2023/01/25 08:50:37;;;;;;;69.20;34.92;;;;;;;6.59;100.00;101566.59;4902650;29;20055;-86
2023/01/25 08:53:02;;;;;;;73.15;35.47;;;;;;;6.61;100.00;101564.66;4902561;29;20399;-82
2023/01/25 08:55:28;;;;;;;66.07;34.95;;;;;;;6.65;100.00;101567.91;4918334;29;20423;-84
2023/01/25 08:57:54;;;;;;;68.90;36.35;;;;;;;6.69;100.00;101569.38;4920675;29;20047;-84
2023/01/25 09:00:20;;;;;;;64.60;34.15;;;;;;;6.68;100.00;101571.19;4920596;29;20028;-84
2023/01/25 09:02:45;;;;;;;65.72;34.65;;;;;;;7.04;100.00;101569.41;4911772;29;20047;-85
2023/01/25 09:05:12;;;;;;;63.05;34.28;;;;;;;6.86;100.00;101563.69;4933919;29;20119;-84
2023/01/25 09:07:40;;;;;;;56.75;32.00;;;;;;;6.83;100.00;101568.38;4933445;29;20052;-89
2023/01/25 09:10:12;;;;;;;62.42;32.70;;;;;;;6.90;100.00;101564.31;4927124;29;20028;-88
2023/01/25 09:12:41;;;;;;;53.08;30.25;;;;;;;6.84;100.00;101562.13;4925867;29;20040;-87
2023/01/25 09:15:10;;;;;;;61.35;32.45;;;;;;;6.79;100.00;101556.38;4920336;29;20056;-85
2023/01/25 09:17:37;;;;;;;58.97;32.30;;;;;;;6.94;100.00;101560.50;4925877;29;20044;-86
2023/01/25 09:20:09;;;;;;;57.33;32.63;;;;;;;7.17;100.00;101557.00;4921927;29;20035;-84
2023/01/25 09:22:35;;;;;;;57.60;31.83;;;;;;;7.42;100.00;101556.84;4922451;29;20498;-86
2023/01/25 09:25:00;;;;;;;61.05;33.55;;;;;;;7.53;100.00;101559.50;4907702;29;20056;-85
2023/01/25 09:27:26;;;;;;;58.45;31.42;;;;;;;7.64;100.00;101564.78;4906190;29;20039;-83
2023/01/25 09:29:51;;;;;;;59.95;32.53;;;;;;;7.59;100.00;101548.47;4921646;29;20504;-86
2023/01/25 09:32:17;;;;;;;78.53;46.15;;;;;;;7.73;100.00;101557.97;4906112;29;20165;-84
2023/01/25 09:34:51;;;;;;;61.35;36.30;;;;;;;8.16;100.00;101544.88;4926578;29;20040;-85
2023/01/25 09:37:17;;;;;;;59.33;31.63;;;;;;;8.04;100.00;101541.44;4927391;29;20394;-89
2023/01/25 09:39:46;;;;;;;49.90;29.02;;;;;;;8.00;100.00;101539.13;4929249;29;20032;-90
2023/01/25 09:42:54;;;;;;;50.25;29.60;;;;;;;8.02;100.00;101542.50;4911031;29;20047;-86
2023/01/25 09:45:33;;;;;;;52.70;30.58;;;;;;;7.99;100.00;101538.28;4925860;29;20044;-85
2023/01/25 09:48:33;;;;;;;45.15;27.88;;;;;;;7.96;100.00;101533.25;4925573;29;20064;-85
2023/01/25 09:51:15;;;;;;;94.40;48.95;;;;;;;8.04;100.00;101532.66;4863499;29;20058;-88
2023/01/25 09:53:52;;;;;;;93.47;48.95;;;;;;;8.01;100.00;101540.81;4851925;29;20211;-85
2023/01/25 09:56:31;;;;;;;57.22;29.20;;;;;;;8.04;100.00;101540.56;4867926;29;20049;-85
2023/01/25 09:59:43;;;;;;;51.53;26.80;;;;;;;8.05;100.00;101534.34;4872916;29;20037;-85
2023/01/25 10:03:06;;;;;;;47.58;25.67;;;;;;;7.97;100.00;101532.31;4934975;29;20032;-84
2023/01/25 10:06:25;;;;;;;46.53;25.48;;;;;;;8.13;100.00;101526.66;4896526;29;20078;-85
2023/01/25 10:09:25;;;;;;;35.28;21.80;;;;;;;8.26;100.00;101532.63;4892277;29;20185;-89
2023/01/25 10:12:34;;;;;;;35.03;21.67;;;;;;;8.06;100.00;101530.72;4894542;29;20185;-83
2023/01/25 10:15:02;;;;;;;49.00;23.13;;;;;;;8.36;100.00;101525.69;4935363;23;20453;-86
2023/01/25 14:20:40;;;;;;;17.15;8.13;;;;;;;9.11;100.00;101229.50;4455754;23;20051;-84
2023/01/25 14:34:03;;;;;;;14.02;7.93;;;;;;;9.10;100.00;101220.72;4941932;29;20068;-81
2023/01/25 14:37:21;;;;;;;21.13;9.70;;;;;;;8.99;100.00;101234.03;4916307;29;20035;-83
2023/01/25 14:40:48;;;;;;;17.90;8.60;;;;;;;9.01;100.00;101229.47;4932134;29;20071;-84
2023/01/25 14:43:38;;;;;;;24.65;9.52;;;;;;;8.93;100.00;101223.16;4971611;23;20052;-84
2023/01/25 14:46:20;;;;;;;16.73;8.55;;;;;;;8.83;100.00;101225.78;4954169;29;20047;-83
2023/01/25 14:48:46;;;;;;;19.17;8.57;;;;;;;8.91;100.00;101218.03;4919724;29;20037;-84
2023/01/25 14:51:17;;;;;;;17.05;8.60;;;;;;;8.94;100.00;101217.75;4918251;29;20045;-83
2023/01/25 14:53:47;;;;;;;20.45;9.43;;;;;;;8.86;100.00;101212.28;4919427;29;20040;-84
2023/01/25 14:56:30;;;;;;;14.07;7.97;;;;;;;9.10;100.00;101215.44;4934954;29;20073;-85
2023/01/25 14:58:57;;;;;;;22.85;9.75;;;;;;;8.86;100.00;101214.09;4919972;29;20556;-84
2023/01/25 15:01:38;;;;;;;18.17;9.00;;;;;;;8.97;100.00;101208.72;4922693;29;20044;-84
2023/01/25 15:04:10;;;;;;;19.40;8.40;;;;;;;8.82;100.00;101203.78;4938203;29;20062;-84
2023/01/25 15:06:51;;;;;;;19.98;9.25;;;;;;;8.97;100.00;101192.84;4939740;29;20036;-84
2023/01/25 15:09:39;;;;;;;22.73;10.48;;;;;;;8.78;100.00;101185.72;4939601;29;20044;-84
2023/01/25 15:12:27;;;;;;;23.40;11.02;;;;;;;8.81;100.00;101190.72;4939481;29;20032;-84
2023/01/25 15:14:58;;;;;;;17.65;9.40;;;;;;;9.04;100.00;101191.34;4939908;29;20071;-85
2023/01/25 15:17:46;;;;;;;20.63;9.97;;;;;;;9.17;100.00;101184.00;4939333;29;20043;-85
2023/01/25 15:20:27;;;;;;;27.33;12.18;;;;;;;9.04;100.00;101175.47;4939667;29;20083;-82
2023/01/25 15:22:53;;;;;;;24.33;9.95;;;;;;;9.01;100.00;101187.16;4935846;29;20035;-85
2023/01/25 15:25:19;;;;;;;23.80;10.48;;;;;;;9.03;100.00;101179.94;4940060;29;20036;-85
2023/01/25 15:27:45;;;;;;;20.48;11.10;;;;;;;9.08;100.00;101182.19;4942776;29;20050;-84
2023/01/25 15:30:16;;;;;;;21.02;10.13;;;;;;;8.82;100.00;101182.66;4940392;29;20039;-84
2023/01/25 15:32:42;;;;;;;22.85;10.43;;;;;;;9.12;100.00;101178.25;4939669;29;20063;-82
2023/01/25 15:35:15;;;;;;;22.52;10.70;;;;;;;9.16;100.00;101175.22;4938663;29;20174;-84
2023/01/25 15:37:40;;;;;;;;;;;;;;;9.15;100.00;101170.06;4941108;29;20043;-84
2023/01/25 15:40:09;;;;;;;26.80;10.85;;;;;;;9.06;100.00;101173.53;4938350;29;19925;-84
2023/01/25 15:42:34;;;;;;;32.75;13.45;;;;;;;8.95;100.00;101171.81;4939260;29;20051;-82
2023/01/25 15:45:11;;;;;;;19.33;10.32;;;;;;;9.12;100.00;101168.53;4939426;29;20393;-84